sensor_id;sensor_type;location;lat;lon;timestamp;P1;durP1;ratioP1;P2;durP2;ratioP2
54458;SDS011;40368;49.350;8.152;2022-10-13T00:00:59;50;;;106;;
54458;SDS011;40368;49.350;8.152;2022-10-13T00:01:59;56;;;111;;
54458;SDS011;40368;49.350;8.152;2022-10-13T00:02:59;59;;;99;;
54458;SDS011;40368;49.350;8.152;2022-10-13T00:03:58;57;;;101;;
54458;SDS011;40368;49.350;8.152;2022-10-13T00:04:59;59;;;104;;
54458;SDS011;40368;49.350;8.152;2022-10-13T00:05:58;59;;;91;;
54458;SDS011;40368;49.350;8.152;2022-10-13T00:06:59;55;;;86;;
54458;SDS011;40368;49.350;8.152;2022-10-13T00:07:59;54;;;92;;
54458;SDS011;40368;49.350;8.152;2022-10-13T00:09:00;58;;;88;;
54458;SDS011;40368;49.350;8.152;2022-10-13T00:09:58;60;;;111;;
54458;SDS011;40368;49.350;8.152;2022-10-13T00:10:58;57;;;121;;
54458;SDS011;40368;49.350;8.152;2022-10-13T00:11:59;55;;;118;;
54458;SDS011;40368;49.350;8.152;2022-10-13T00:12:58;57;;;104;;
54458;SDS011;40368;49.350;8.152;2022-10-13T00:13:59;50;;;98;;
54458;SDS011;40368;49.350;8.152;2022-10-13T00:14:59;49;;;87;;
54458;SDS011;40368;49.350;8.152;2022-10-13T00:16:00;53;;;82;;
54458;SDS011;40368;49.350;8.152;2022-10-13T00:16:59;54;;;121;;
54458;SDS011;40368;49.350;8.152;2022-10-13T00:17:59;54;;;95;;
54458;SDS011;40368;49.350;8.152;2022-10-13T00:18:59;56;;;87;;
54458;SDS011;40368;49.350;8.152;2022-10-13T00:19:59;53;;;86;;
54458;SDS011;40368;49.350;8.152;2022-10-13T00:20:59;52;;;101;;
54458;SDS011;40368;49.350;8.152;2022-10-13T00:21:58;51;;;101;;
54458;SDS011;40368;49.350;8.152;2022-10-13T00:22:59;57;;;90;;
54458;SDS011;40368;49.350;8.152;2022-10-13T00:23:58;51;;;85;;
54458;SDS011;40368;49.350;8.152;2022-10-13T00:24:59;52;;;119;;
54458;SDS011;40368;49.350;8.152;2022-10-13T00:26:00;51;;;91;;
54458;SDS011;40368;49.350;8.152;2022-10-13T00:26:58;52;;;108;;
54458;SDS011;40368;49.350;8.152;2022-10-13T00:27:59;52;;;120;;
54458;SDS011;40368;49.350;8.152;2022-10-13T00:28:59;50;;;109;;
54458;SDS011;40368;49.350;8.152;2022-10-13T00:29:58;41;;;79;;
54458;SDS011;40368;49.350;8.152;2022-10-13T00:30:59;50;;;113;;
54458;SDS011;40368;49.350;8.152;2022-10-13T00:31:59;52;;;86;;
54458;SDS011;40368;49.350;8.152;2022-10-13T00:33:01;47;;;81;;
54458;SDS011;40368;49.350;8.152;2022-10-13T00:34:00;51;;;114;;
54458;SDS011;40368;49.350;8.152;2022-10-13T00:34:58;52;;;145;;
54458;SDS011;40368;49.350;8.152;2022-10-13T00:35:58;50;;;99;;
54458;SDS011;40368;49.350;8.152;2022-10-13T00:36:59;49;;;106;;
54458;SDS011;40368;49.350;8.152;2022-10-13T00:37:59;46;;;81;;
54458;SDS011;40368;49.350;8.152;2022-10-13T00:38:58;60;;;107;;
54458;SDS011;40368;49.350;8.152;2022-10-13T00:39:59;48;;;77;;
54458;SDS011;40368;49.350;8.152;2022-10-13T00:40:58;48;;;95;;
54458;SDS011;40368;49.350;8.152;2022-10-13T00:41:59;52;;;88;;
54458;SDS011;40368;49.350;8.152;2022-10-13T00:42:58;51;;;76;;
54458;SDS011;40368;49.350;8.152;2022-10-13T00:43:59;49;;;78;;
54458;SDS011;40368;49.350;8.152;2022-10-13T00:45:00;53;;;87;;
54458;SDS011;40368;49.350;8.152;2022-10-13T00:45:58;52;;;78;;
54458;SDS011;40368;49.350;8.152;2022-10-13T00:46:58;46;;;90;;
54458;SDS011;40368;49.350;8.152;2022-10-13T00:47:59;50;;;72;;
54458;SDS011;40368;49.350;8.152;2022-10-13T00:48:59;50;;;92;;
54458;SDS011;40368;49.350;8.152;2022-10-13T00:49:59;47;;;88;;
54458;SDS011;40368;49.350;8.152;2022-10-13T00:50:59;46;;;83;;
54458;SDS011;40368;49.350;8.152;2022-10-13T00:51:59;47;;;82;;
54458;SDS011;40368;49.350;8.152;2022-10-13T00:52:59;54;;;120;;
54458;SDS011;40368;49.350;8.152;2022-10-13T00:53:59;54;;;89;;
54458;SDS011;40368;49.350;8.152;2022-10-13T00:54:59;48;;;78;;
54458;SDS011;40368;49.350;8.152;2022-10-13T00:55:58;49;;;87;;
54458;SDS011;40368;49.350;8.152;2022-10-13T00:56:59;55;;;95;;
54458;SDS011;40368;49.350;8.152;2022-10-13T00:57:59;55;;;81;;
54458;SDS011;40368;49.350;8.152;2022-10-13T00:58:58;56;;;85;;
54458;SDS011;40368;49.350;8.152;2022-10-13T00:59:58;56;;;100;;
54458;SDS011;40368;49.350;8.152;2022-10-13T01:00:59;49;;;105;;
54458;SDS011;40368;49.350;8.152;2022-10-13T01:01:59;53;;;93;;
54458;SDS011;40368;49.350;8.152;2022-10-13T01:02:59;51;;;89;;
54458;SDS011;40368;49.350;8.152;2022-10-13T01:05:59;49;;;83;;
54458;SDS011;40368;49.350;8.152;2022-10-13T01:06:59;51;;;88;;
54458;SDS011;40368;49.350;8.152;2022-10-13T01:07:58;53;;;83;;
54458;SDS011;40368;49.350;8.152;2022-10-13T01:08:58;48;;;85;;
54458;SDS011;40368;49.350;8.152;2022-10-13T01:10:09;41;;;67;;
54458;SDS011;40368;49.350;8.152;2022-10-13T01:11:01;46;;;100;;
54458;SDS011;40368;49.350;8.152;2022-10-13T01:12:00;41;;;85;;
54458;SDS011;40368;49.350;8.152;2022-10-13T01:12:59;52;;;147;;
54458;SDS011;40368;49.350;8.152;2022-10-13T01:14:00;42;;;68;;
54458;SDS011;40368;49.350;8.152;2022-10-13T01:15:00;45;;;71;;
54458;SDS011;40368;49.350;8.152;2022-10-13T01:16:00;50;;;76;;
54458;SDS011;40368;49.350;8.152;2022-10-13T01:17:00;51;;;91;;
54458;SDS011;40368;49.350;8.152;2022-10-13T01:18:01;48;;;81;;
54458;SDS011;40368;49.350;8.152;2022-10-13T01:19:01;43;;;69;;
54458;SDS011;40368;49.350;8.152;2022-10-13T01:20:19;46;;;68;;
54458;SDS011;40368;49.350;8.152;2022-10-13T01:21:03;48;;;124;;
54458;SDS011;40368;49.350;8.152;2022-10-13T01:22:00;44;;;80;;
54458;SDS011;40368;49.350;8.152;2022-10-13T01:23:05;50;;;78;;
54458;SDS011;40368;49.350;8.152;2022-10-13T01:24:03;39;;;90;;
54458;SDS011;40368;49.350;8.152;2022-10-13T01:25:00;49;;;118;;
54458;SDS011;40368;49.350;8.152;2022-10-13T01:26:05;44;;;78;;
54458;SDS011;40368;49.350;8.152;2022-10-13T01:27:07;53;;;106;;
54458;SDS011;40368;49.350;8.152;2022-10-13T01:28:03;43;;;59;;
54458;SDS011;40368;49.350;8.152;2022-10-13T01:29:10;45;;;88;;
54458;SDS011;40368;49.350;8.152;2022-10-13T01:30:02;51;;;78;;
54458;SDS011;40368;49.350;8.152;2022-10-13T01:30:59;40;;;54;;
54458;SDS011;40368;49.350;8.152;2022-10-13T01:32:00;45;;;82;;
54458;SDS011;40368;49.350;8.152;2022-10-13T01:33:03;43;;;82;;
54458;SDS011;40368;49.350;8.152;2022-10-13T01:33:59;46;;;56;;
54458;SDS011;40368;49.350;8.152;2022-10-13T01:34:59;41;;;63;;
54458;SDS011;40368;49.350;8.152;2022-10-13T01:36:02;44;;;77;;
54458;SDS011;40368;49.350;8.152;2022-10-13T01:37:00;47;;;93;;
54458;SDS011;40368;49.350;8.152;2022-10-13T01:38:01;44;;;52;;
54458;SDS011;40368;49.350;8.152;2022-10-13T01:39:00;45;;;83;;
54458;SDS011;40368;49.350;8.152;2022-10-13T01:40:00;45;;;72;;
54458;SDS011;40368;49.350;8.152;2022-10-13T01:40:59;43;;;72;;
54458;SDS011;40368;49.350;8.152;2022-10-13T01:42:00;46;;;94;;
54458;SDS011;40368;49.350;8.152;2022-10-13T01:43:00;54;;;94;;
54458;SDS011;40368;49.350;8.152;2022-10-13T01:43:59;44;;;53;;
54458;SDS011;40368;49.350;8.152;2022-10-13T01:44:59;39;;;56;;
54458;SDS011;40368;49.350;8.152;2022-10-13T01:45:59;44;;;75;;
54458;SDS011;40368;49.350;8.152;2022-10-13T01:46:59;44;;;75;;
54458;SDS011;40368;49.350;8.152;2022-10-13T01:47:58;46;;;82;;
54458;SDS011;40368;49.350;8.152;2022-10-13T01:49:00;43;;;79;;
54458;SDS011;40368;49.350;8.152;2022-10-13T01:49:59;43;;;62;;
54458;SDS011;40368;49.350;8.152;2022-10-13T01:50:58;46;;;79;;
54458;SDS011;40368;49.350;8.152;2022-10-13T01:51:59;39;;;64;;
54458;SDS011;40368;49.350;8.152;2022-10-13T01:52:59;46;;;95;;
54458;SDS011;40368;49.350;8.152;2022-10-13T01:53:59;44;;;83;;
54458;SDS011;40368;49.350;8.152;2022-10-13T01:55:03;43;;;70;;
54458;SDS011;40368;49.350;8.152;2022-10-13T01:55:59;48;;;104;;
54458;SDS011;40368;49.350;8.152;2022-10-13T01:56:59;46;;;82;;
54458;SDS011;40368;49.350;8.152;2022-10-13T01:57:59;45;;;73;;
54458;SDS011;40368;49.350;8.152;2022-10-13T01:59:00;48;;;113;;
54458;SDS011;40368;49.350;8.152;2022-10-13T02:01:02;43;;;82;;
54458;SDS011;40368;49.350;8.152;2022-10-13T02:02:00;41;;;70;;
54458;SDS011;40368;49.350;8.152;2022-10-13T02:03:00;40;;;86;;
54458;SDS011;40368;49.350;8.152;2022-10-13T02:04:01;43;;;84;;
54458;SDS011;40368;49.350;8.152;2022-10-13T02:05:02;46;;;89;;
54458;SDS011;40368;49.350;8.152;2022-10-13T02:06:01;43;;;73;;
54458;SDS011;40368;49.350;8.152;2022-10-13T02:07:00;41;;;64;;
54458;SDS011;40368;49.350;8.152;2022-10-13T02:08:00;38;;;81;;
54458;SDS011;40368;49.350;8.152;2022-10-13T02:09:00;37;;;47;;
54458;SDS011;40368;49.350;8.152;2022-10-13T02:10:00;47;;;78;;
54458;SDS011;40368;49.350;8.152;2022-10-13T02:11:00;42;;;55;;
54458;SDS011;40368;49.350;8.152;2022-10-13T02:12:00;42;;;87;;
54458;SDS011;40368;49.350;8.152;2022-10-13T02:12:59;42;;;97;;
54458;SDS011;40368;49.350;8.152;2022-10-13T02:14:02;39;;;63;;
54458;SDS011;40368;49.350;8.152;2022-10-13T02:14:59;39;;;71;;
54458;SDS011;40368;49.350;8.152;2022-10-13T02:15:59;37;;;95;;
54458;SDS011;40368;49.350;8.152;2022-10-13T02:17:00;39;;;68;;
54458;SDS011;40368;49.350;8.152;2022-10-13T02:17:59;43;;;66;;
54458;SDS011;40368;49.350;8.152;2022-10-13T02:18:58;37;;;63;;
54458;SDS011;40368;49.350;8.152;2022-10-13T02:19:58;39;;;78;;
54458;SDS011;40368;49.350;8.152;2022-10-13T02:20:59;37;;;57;;
54458;SDS011;40368;49.350;8.152;2022-10-13T02:21:59;38;;;68;;
54458;SDS011;40368;49.350;8.152;2022-10-13T02:22:59;39;;;75;;
54458;SDS011;40368;49.350;8.152;2022-10-13T02:23:59;36;;;49;;
54458;SDS011;40368;49.350;8.152;2022-10-13T02:24:59;42;;;92;;
54458;SDS011;40368;49.350;8.152;2022-10-13T02:25:59;36;;;77;;
54458;SDS011;40368;49.350;8.152;2022-10-13T02:26:58;35;;;57;;
54458;SDS011;40368;49.350;8.152;2022-10-13T02:28:00;35;;;49;;
54458;SDS011;40368;49.350;8.152;2022-10-13T02:28:59;35;;;62;;
54458;SDS011;40368;49.350;8.152;2022-10-13T02:29:59;39;;;61;;
54458;SDS011;40368;49.350;8.152;2022-10-13T02:30:58;38;;;96;;
54458;SDS011;40368;49.350;8.152;2022-10-13T02:31:59;40;;;87;;
54458;SDS011;40368;49.350;8.152;2022-10-13T02:32:59;42;;;69;;
54458;SDS011;40368;49.350;8.152;2022-10-13T02:33:59;34;;;61;;
54458;SDS011;40368;49.350;8.152;2022-10-13T02:34:58;39;;;74;;
54458;SDS011;40368;49.350;8.152;2022-10-13T02:35:58;34;;;45;;
54458;SDS011;40368;49.350;8.152;2022-10-13T02:36:59;33;;;48;;
54458;SDS011;40368;49.350;8.152;2022-10-13T02:37:59;38;;;91;;
54458;SDS011;40368;49.350;8.152;2022-10-13T02:38:58;38;;;77;;
54458;SDS011;40368;49.350;8.152;2022-10-13T02:39:59;41;;;71;;
54458;SDS011;40368;49.350;8.152;2022-10-13T02:40:59;36;;;71;;
54458;SDS011;40368;49.350;8.152;2022-10-13T02:41:59;38;;;62;;
54458;SDS011;40368;49.350;8.152;2022-10-13T02:42:59;39;;;77;;
54458;SDS011;40368;49.350;8.152;2022-10-13T02:43:58;38;;;71;;
54458;SDS011;40368;49.350;8.152;2022-10-13T02:44:59;35;;;76;;
54458;SDS011;40368;49.350;8.152;2022-10-13T02:45:59;35;;;86;;
54458;SDS011;40368;49.350;8.152;2022-10-13T02:46:59;41;;;79;;
54458;SDS011;40368;49.350;8.152;2022-10-13T02:47:59;37;;;88;;
54458;SDS011;40368;49.350;8.152;2022-10-13T02:49:00;33;;;54;;
54458;SDS011;40368;49.350;8.152;2022-10-13T02:49:59;30;;;38;;
54458;SDS011;40368;49.350;8.152;2022-10-13T02:50:59;35;;;67;;
54458;SDS011;40368;49.350;8.152;2022-10-13T02:51:58;31;;;71;;
54458;SDS011;40368;49.350;8.152;2022-10-13T02:52:59;41;;;147;;
54458;SDS011;40368;49.350;8.152;2022-10-13T02:53:59;33;;;44;;
54458;SDS011;40368;49.350;8.152;2022-10-13T02:54:59;33;;;61;;
54458;SDS011;40368;49.350;8.152;2022-10-13T02:55:59;35;;;68;;
54458;SDS011;40368;49.350;8.152;2022-10-13T02:56:59;33;;;50;;
54458;SDS011;40368;49.350;8.152;2022-10-13T02:57:58;30;;;38;;
54458;SDS011;40368;49.350;8.152;2022-10-13T02:58:59;31;;;53;;
54458;SDS011;40368;49.350;8.152;2022-10-13T02:59:59;36;;;55;;
54458;SDS011;40368;49.350;8.152;2022-10-13T03:01:04;33;;;65;;
54458;SDS011;40368;49.350;8.152;2022-10-13T03:01:59;34;;;51;;
54458;SDS011;40368;49.350;8.152;2022-10-13T03:02:59;31;;;70;;
54458;SDS011;40368;49.350;8.152;2022-10-13T03:03:59;32;;;82;;
54458;SDS011;40368;49.350;8.152;2022-10-13T03:04:59;42;;;75;;
54458;SDS011;40368;49.350;8.152;2022-10-13T03:05:59;33;;;73;;
54458;SDS011;40368;49.350;8.152;2022-10-13T03:06:59;31;;;53;;
54458;SDS011;40368;49.350;8.152;2022-10-13T03:07:58;36;;;62;;
54458;SDS011;40368;49.350;8.152;2022-10-13T03:08:59;32;;;61;;
54458;SDS011;40368;49.350;8.152;2022-10-13T03:09:59;33;;;66;;
54458;SDS011;40368;49.350;8.152;2022-10-13T03:10:59;28;;;48;;
54458;SDS011;40368;49.350;8.152;2022-10-13T03:11:59;37;;;76;;
54458;SDS011;40368;49.350;8.152;2022-10-13T03:12:59;37;;;92;;
54458;SDS011;40368;49.350;8.152;2022-10-13T03:13:59;36;;;72;;
54458;SDS011;40368;49.350;8.152;2022-10-13T03:14:59;32;;;72;;
54458;SDS011;40368;49.350;8.152;2022-10-13T03:15:59;33;;;68;;
54458;SDS011;40368;49.350;8.152;2022-10-13T03:16:59;27;;;49;;
54458;SDS011;40368;49.350;8.152;2022-10-13T03:17:59;30;;;64;;
54458;SDS011;40368;49.350;8.152;2022-10-13T03:18:59;26;;;52;;
54458;SDS011;40368;49.350;8.152;2022-10-13T03:19:59;32;;;76;;
54458;SDS011;40368;49.350;8.152;2022-10-13T03:20:59;28;;;62;;
54458;SDS011;40368;49.350;8.152;2022-10-13T03:21:59;29;;;37;;
54458;SDS011;40368;49.350;8.152;2022-10-13T03:22:59;29;;;58;;
54458;SDS011;40368;49.350;8.152;2022-10-13T03:23:59;31;;;76;;
54458;SDS011;40368;49.350;8.152;2022-10-13T03:24:59;31;;;87;;
54458;SDS011;40368;49.350;8.152;2022-10-13T03:25:59;31;;;102;;
54458;SDS011;40368;49.350;8.152;2022-10-13T03:26:58;38;;;78;;
54458;SDS011;40368;49.350;8.152;2022-10-13T03:27:59;34;;;65;;
54458;SDS011;40368;49.350;8.152;2022-10-13T03:28:59;31;;;55;;
54458;SDS011;40368;49.350;8.152;2022-10-13T03:29:59;27;;;40;;
54458;SDS011;40368;49.350;8.152;2022-10-13T03:30:59;32;;;57;;
54458;SDS011;40368;49.350;8.152;2022-10-13T03:31:59;32;;;45;;
54458;SDS011;40368;49.350;8.152;2022-10-13T03:32:59;31;;;68;;
54458;SDS011;40368;49.350;8.152;2022-10-13T03:33:59;32;;;58;;
54458;SDS011;40368;49.350;8.152;2022-10-13T03:34:59;29;;;39;;
54458;SDS011;40368;49.350;8.152;2022-10-13T03:35:59;28;;;43;;
54458;SDS011;40368;49.350;8.152;2022-10-13T03:36:59;29;;;56;;
54458;SDS011;40368;49.350;8.152;2022-10-13T03:37:59;29;;;37;;
54458;SDS011;40368;49.350;8.152;2022-10-13T03:38:59;34;;;45;;
54458;SDS011;40368;49.350;8.152;2022-10-13T03:39:59;29;;;65;;
54458;SDS011;40368;49.350;8.152;2022-10-13T03:41:03;33;;;76;;
54458;SDS011;40368;49.350;8.152;2022-10-13T03:41:59;32;;;83;;
54458;SDS011;40368;49.350;8.152;2022-10-13T03:42:58;32;;;54;;
54458;SDS011;40368;49.350;8.152;2022-10-13T03:43:59;34;;;74;;
54458;SDS011;40368;49.350;8.152;2022-10-13T03:44:59;26;;;47;;
54458;SDS011;40368;49.350;8.152;2022-10-13T03:45:59;32;;;87;;
54458;SDS011;40368;49.350;8.152;2022-10-13T03:46:59;27;;;47;;
54458;SDS011;40368;49.350;8.152;2022-10-13T03:47:59;32;;;60;;
54458;SDS011;40368;49.350;8.152;2022-10-13T03:48:59;32;;;62;;
54458;SDS011;40368;49.350;8.152;2022-10-13T03:49:59;27;;;65;;
54458;SDS011;40368;49.350;8.152;2022-10-13T03:50:59;28;;;42;;
54458;SDS011;40368;49.350;8.152;2022-10-13T03:51:59;32;;;35;;
54458;SDS011;40368;49.350;8.152;2022-10-13T03:52:59;27;;;58;;
54458;SDS011;40368;49.350;8.152;2022-10-13T03:53:59;28;;;48;;
54458;SDS011;40368;49.350;8.152;2022-10-13T03:54:59;38;;;114;;
54458;SDS011;40368;49.350;8.152;2022-10-13T03:55:59;26;;;70;;
54458;SDS011;40368;49.350;8.152;2022-10-13T03:56:59;29;;;47;;
54458;SDS011;40368;49.350;8.152;2022-10-13T03:57:59;32;;;62;;
54458;SDS011;40368;49.350;8.152;2022-10-13T03:58:59;35;;;109;;
54458;SDS011;40368;49.350;8.152;2022-10-13T03:59:59;25;;;51;;
54458;SDS011;40368;49.350;8.152;2022-10-13T04:01:01;28;;;42;;
54458;SDS011;40368;49.350;8.152;2022-10-13T04:02:00;26;;;53;;
54458;SDS011;40368;49.350;8.152;2022-10-13T04:02:58;30;;;45;;
54458;SDS011;40368;49.350;8.152;2022-10-13T04:04:00;27;;;34;;
54458;SDS011;40368;49.350;8.152;2022-10-13T04:04:59;25;;;42;;
54458;SDS011;40368;49.350;8.152;2022-10-13T04:05:59;26;;;47;;
54458;SDS011;40368;49.350;8.152;2022-10-13T04:06:59;30;;;45;;
54458;SDS011;40368;49.350;8.152;2022-10-13T04:07:59;30;;;56;;
54458;SDS011;40368;49.350;8.152;2022-10-13T04:08:59;30;;;54;;
54458;SDS011;40368;49.350;8.152;2022-10-13T04:09:59;29;;;37;;
54458;SDS011;40368;49.350;8.152;2022-10-13T04:10:59;27;;;50;;
54458;SDS011;40368;49.350;8.152;2022-10-13T04:11:58;25;;;52;;
54458;SDS011;40368;49.350;8.152;2022-10-13T04:12:59;28;;;39;;
54458;SDS011;40368;49.350;8.152;2022-10-13T04:13:59;26;;;36;;
54458;SDS011;40368;49.350;8.152;2022-10-13T04:14:59;28;;;52;;
54458;SDS011;40368;49.350;8.152;2022-10-13T04:16:00;26;;;62;;
54458;SDS011;40368;49.350;8.152;2022-10-13T04:16:59;27;;;32;;
54458;SDS011;40368;49.350;8.152;2022-10-13T04:17:59;31;;;48;;
54458;SDS011;40368;49.350;8.152;2022-10-13T04:18:59;28;;;50;;
54458;SDS011;40368;49.350;8.152;2022-10-13T04:19:59;30;;;47;;
54458;SDS011;40368;49.350;8.152;2022-10-13T04:20:59;28;;;50;;
54458;SDS011;40368;49.350;8.152;2022-10-13T04:21:59;26;;;47;;
54458;SDS011;40368;49.350;8.152;2022-10-13T04:22:59;27;;;42;;
54458;SDS011;40368;49.350;8.152;2022-10-13T04:23:59;29;;;72;;
54458;SDS011;40368;49.350;8.152;2022-10-13T04:24:59;30;;;66;;
54458;SDS011;40368;49.350;8.152;2022-10-13T04:25:59;34;;;54;;
54458;SDS011;40368;49.350;8.152;2022-10-13T04:26:59;28;;;48;;
54458;SDS011;40368;49.350;8.152;2022-10-13T04:27:59;33;;;85;;
54458;SDS011;40368;49.350;8.152;2022-10-13T04:29:01;31;;;58;;
54458;SDS011;40368;49.350;8.152;2022-10-13T04:29:59;29;;;50;;
54458;SDS011;40368;49.350;8.152;2022-10-13T04:30:59;29;;;56;;
54458;SDS011;40368;49.350;8.152;2022-10-13T04:31:59;30;;;86;;
54458;SDS011;40368;49.350;8.152;2022-10-13T04:32:59;26;;;41;;
54458;SDS011;40368;49.350;8.152;2022-10-13T04:33:59;29;;;48;;
54458;SDS011;40368;49.350;8.152;2022-10-13T04:34:59;25;;;53;;
54458;SDS011;40368;49.350;8.152;2022-10-13T04:36:01;28;;;71;;
54458;SDS011;40368;49.350;8.152;2022-10-13T04:36:59;29;;;51;;
54458;SDS011;40368;49.350;8.152;2022-10-13T04:37:59;28;;;69;;
54458;SDS011;40368;49.350;8.152;2022-10-13T04:39:00;26;;;49;;
54458;SDS011;40368;49.350;8.152;2022-10-13T04:39:59;29;;;45;;
54458;SDS011;40368;49.350;8.152;2022-10-13T04:41:00;27;;;53;;
54458;SDS011;40368;49.350;8.152;2022-10-13T04:41:59;29;;;58;;
54458;SDS011;40368;49.350;8.152;2022-10-13T04:42:59;29;;;67;;
54458;SDS011;40368;49.350;8.152;2022-10-13T04:43:59;26;;;42;;
54458;SDS011;40368;49.350;8.152;2022-10-13T04:44:59;29;;;76;;
54458;SDS011;40368;49.350;8.152;2022-10-13T04:45:59;30;;;52;;
54458;SDS011;40368;49.350;8.152;2022-10-13T04:47:00;30;;;67;;
54458;SDS011;40368;49.350;8.152;2022-10-13T04:47:59;27;;;47;;
54458;SDS011;40368;49.350;8.152;2022-10-13T04:48:59;29;;;47;;
54458;SDS011;40368;49.350;8.152;2022-10-13T04:49:59;27;;;71;;
54458;SDS011;40368;49.350;8.152;2022-10-13T04:50:59;27;;;67;;
54458;SDS011;40368;49.350;8.152;2022-10-13T04:51:59;27;;;56;;
54458;SDS011;40368;49.350;8.152;2022-10-13T04:52:59;28;;;58;;
54458;SDS011;40368;49.350;8.152;2022-10-13T04:54:00;34;;;84;;
54458;SDS011;40368;49.350;8.152;2022-10-13T04:54:59;32;;;70;;
54458;SDS011;40368;49.350;8.152;2022-10-13T04:55:59;32;;;50;;
54458;SDS011;40368;49.350;8.152;2022-10-13T04:56:59;29;;;43;;
54458;SDS011;40368;49.350;8.152;2022-10-13T04:57:59;30;;;63;;
54458;SDS011;40368;49.350;8.152;2022-10-13T04:58:59;29;;;37;;
54458;SDS011;40368;49.350;8.152;2022-10-13T04:59:59;27;;;47;;
54458;SDS011;40368;49.350;8.152;2022-10-13T05:02:59;29;;;51;;
54458;SDS011;40368;49.350;8.152;2022-10-13T05:03:59;30;;;38;;
54458;SDS011;40368;49.350;8.152;2022-10-13T05:04:59;29;;;67;;
54458;SDS011;40368;49.350;8.152;2022-10-13T05:05:59;24;;;27;;
54458;SDS011;40368;49.350;8.152;2022-10-13T05:06:59;30;;;44;;
54458;SDS011;40368;49.350;8.152;2022-10-13T05:07:59;30;;;54;;
54458;SDS011;40368;49.350;8.152;2022-10-13T05:08:59;32;;;60;;
54458;SDS011;40368;49.350;8.152;2022-10-13T05:09:59;30;;;51;;
54458;SDS011;40368;49.350;8.152;2022-10-13T05:10:59;30;;;45;;
54458;SDS011;40368;49.350;8.152;2022-10-13T05:11:59;27;;;54;;
54458;SDS011;40368;49.350;8.152;2022-10-13T05:12:59;28;;;58;;
54458;SDS011;40368;49.350;8.152;2022-10-13T05:13:59;27;;;49;;
54458;SDS011;40368;49.350;8.152;2022-10-13T05:14:59;28;;;59;;
54458;SDS011;40368;49.350;8.152;2022-10-13T05:15:59;26;;;49;;
54458;SDS011;40368;49.350;8.152;2022-10-13T05:16:59;30;;;54;;
54458;SDS011;40368;49.350;8.152;2022-10-13T05:17:59;28;;;62;;
54458;SDS011;40368;49.350;8.152;2022-10-13T05:18:59;32;;;60;;
54458;SDS011;40368;49.350;8.152;2022-10-13T05:19:59;28;;;36;;
54458;SDS011;40368;49.350;8.152;2022-10-13T05:21:04;30;;;75;;
54458;SDS011;40368;49.350;8.152;2022-10-13T05:21:59;31;;;48;;
54458;SDS011;40368;49.350;8.152;2022-10-13T05:22:59;31;;;42;;
54458;SDS011;40368;49.350;8.152;2022-10-13T05:23:59;31;;;50;;
54458;SDS011;40368;49.350;8.152;2022-10-13T05:24:59;30;;;95;;
54458;SDS011;40368;49.350;8.152;2022-10-13T05:25:59;27;;;39;;
54458;SDS011;40368;49.350;8.152;2022-10-13T05:26:59;29;;;62;;
54458;SDS011;40368;49.350;8.152;2022-10-13T05:27:59;30;;;50;;
54458;SDS011;40368;49.350;8.152;2022-10-13T05:28:59;33;;;74;;
54458;SDS011;40368;49.350;8.152;2022-10-13T05:29:59;29;;;51;;
54458;SDS011;40368;49.350;8.152;2022-10-13T05:31:06;28;;;48;;
54458;SDS011;40368;49.350;8.152;2022-10-13T05:31:59;31;;;69;;
54458;SDS011;40368;49.350;8.152;2022-10-13T05:32:59;30;;;60;;
54458;SDS011;40368;49.350;8.152;2022-10-13T05:33:59;30;;;38;;
54458;SDS011;40368;49.350;8.152;2022-10-13T05:34:59;28;;;42;;
54458;SDS011;40368;49.350;8.152;2022-10-13T05:36:01;27;;;36;;
54458;SDS011;40368;49.350;8.152;2022-10-13T05:36:59;28;;;52;;
54458;SDS011;40368;49.350;8.152;2022-10-13T05:37:59;28;;;53;;
54458;SDS011;40368;49.350;8.152;2022-10-13T05:38:59;29;;;56;;
54458;SDS011;40368;49.350;8.152;2022-10-13T05:39:59;26;;;40;;
54458;SDS011;40368;49.350;8.152;2022-10-13T05:41:02;27;;;53;;
54458;SDS011;40368;49.350;8.152;2022-10-13T05:41:59;31;;;54;;
54458;SDS011;40368;49.350;8.152;2022-10-13T05:42:59;29;;;44;;
54458;SDS011;40368;49.350;8.152;2022-10-13T05:44:09;30;;;46;;
54458;SDS011;40368;49.350;8.152;2022-10-13T05:44:59;29;;;90;;
54458;SDS011;40368;49.350;8.152;2022-10-13T05:45:59;28;;;52;;
54458;SDS011;40368;49.350;8.152;2022-10-13T05:46:59;32;;;71;;
54458;SDS011;40368;49.350;8.152;2022-10-13T05:47:59;34;;;86;;
54458;SDS011;40368;49.350;8.152;2022-10-13T05:49:00;35;;;88;;
54458;SDS011;40368;49.350;8.152;2022-10-13T05:49:59;45;;;100;;
54458;SDS011;40368;49.350;8.152;2022-10-13T05:50:59;43;;;99;;
54458;SDS011;40368;49.350;8.152;2022-10-13T05:52:00;50;;;89;;
54458;SDS011;40368;49.350;8.152;2022-10-13T05:52:59;52;;;85;;
54458;SDS011;40368;49.350;8.152;2022-10-13T05:53:59;48;;;87;;
54458;SDS011;40368;49.350;8.152;2022-10-13T05:54:59;51;;;98;;
54458;SDS011;40368;49.350;8.152;2022-10-13T05:55:59;52;;;87;;
54458;SDS011;40368;49.350;8.152;2022-10-13T05:56:59;52;;;117;;
54458;SDS011;40368;49.350;8.152;2022-10-13T05:57:59;51;;;112;;
54458;SDS011;40368;49.350;8.152;2022-10-13T05:58:59;57;;;97;;
54458;SDS011;40368;49.350;8.152;2022-10-13T05:59:59;51;;;104;;
54458;SDS011;40368;49.350;8.152;2022-10-13T06:01:00;57;;;135;;
54458;SDS011;40368;49.350;8.152;2022-10-13T06:01:59;58;;;99;;
54458;SDS011;40368;49.350;8.152;2022-10-13T06:03:01;55;;;85;;
54458;SDS011;40368;49.350;8.152;2022-10-13T06:03:59;56;;;115;;
54458;SDS011;40368;49.350;8.152;2022-10-13T06:04:59;50;;;109;;
54458;SDS011;40368;49.350;8.152;2022-10-13T06:05:59;48;;;96;;
54458;SDS011;40368;49.350;8.152;2022-10-13T06:06:59;58;;;123;;
54458;SDS011;40368;49.350;8.152;2022-10-13T06:07:59;55;;;124;;
54458;SDS011;40368;49.350;8.152;2022-10-13T06:08:59;51;;;96;;
54458;SDS011;40368;49.350;8.152;2022-10-13T06:09:59;53;;;95;;
54458;SDS011;40368;49.350;8.152;2022-10-13T06:10:59;57;;;142;;
54458;SDS011;40368;49.350;8.152;2022-10-13T06:11:59;54;;;107;;
54458;SDS011;40368;49.350;8.152;2022-10-13T06:12:59;59;;;104;;
54458;SDS011;40368;49.350;8.152;2022-10-13T06:13:59;61;;;139;;
54458;SDS011;40368;49.350;8.152;2022-10-13T06:14:59;68;;;121;;
54458;SDS011;40368;49.350;8.152;2022-10-13T06:15:59;67;;;125;;
54458;SDS011;40368;49.350;8.152;2022-10-13T06:16:59;64;;;84;;
54458;SDS011;40368;49.350;8.152;2022-10-13T06:17:59;70;;;156;;
54458;SDS011;40368;49.350;8.152;2022-10-13T06:18:59;62;;;101;;
54458;SDS011;40368;49.350;8.152;2022-10-13T06:19:59;66;;;103;;
54458;SDS011;40368;49.350;8.152;2022-10-13T06:20:59;60;;;120;;
54458;SDS011;40368;49.350;8.152;2022-10-13T06:21:59;58;;;128;;
54458;SDS011;40368;49.350;8.152;2022-10-13T06:22:59;51;;;71;;
54458;SDS011;40368;49.350;8.152;2022-10-13T06:23:59;50;;;79;;
54458;SDS011;40368;49.350;8.152;2022-10-13T06:24:59;59;;;101;;
54458;SDS011;40368;49.350;8.152;2022-10-13T06:25:59;57;;;141;;
54458;SDS011;40368;49.350;8.152;2022-10-13T06:26:59;55;;;99;;
54458;SDS011;40368;49.350;8.152;2022-10-13T06:27:59;52;;;85;;
54458;SDS011;40368;49.350;8.152;2022-10-13T06:28:59;55;;;76;;